Time;durP1;ratioP1;P1;durP2;ratioP2;P2;SDS_P1;SDS_P2;PMS_P1;PMS_P2;Temp;Humidity;BMP_temperature;BMP_pressure;BME280_temperature;BME280_humidity;BME280_pressure;Samples;Min_cycle;Max_cycle;Signal;HPM_P1;HPM_P2
2022/04/12 00:00:27;;;;;;;;;;;;;;;6.62;52.00;100281.00;5086607;28;20416;-79
2022/04/12 00:02:52;;;;;;;;;;;;;;;6.58;51.90;100280.97;5086981;28;19981;-79
2022/04/12 00:05:18;;;;;;;;;;;;;;;6.56;52.09;100282.69;5086630;28;19930;-80
2022/04/12 00:07:43;;;;;;;;;;;;;;;6.70;51.36;100277.59;5087097;28;19915;-81
2022/04/12 00:10:10;;;;;;;;;;;;;;;6.69;51.43;100275.81;5086407;28;20460;-81
2022/04/12 00:12:37;;;;;;;;;;;;;;;6.56;51.47;100272.22;5087073;28;19962;-81
2022/04/12 00:15:03;;;;;;;;;;;;;;;6.42;52.04;100269.44;5077138;28;20414;-81
2022/04/12 00:20:12;;;;;;;;;;;;;;;6.34;51.68;100274.59;5085962;28;19992;-80
2022/04/12 00:22:40;;;;;;;;;;;;;;;6.36;51.87;100275.47;5082977;28;19920;-80
2022/04/12 00:25:09;;;;;;;;;;;;;;;6.52;50.96;100266.06;5086685;28;20436;-81
2022/04/12 00:27:34;;;;;;;;;;;;;;;6.56;50.49;100267.84;5086817;28;19916;-82
2022/04/12 00:29:59;;;;;;;;;;;;;;;6.53;50.61;100261.69;5085958;28;19919;-81
2022/04/12 00:32:24;;;;;;;;;;;;;;;6.44;50.92;100268.59;5078691;28;20416;-80
2022/04/12 00:34:50;;;;;;;;;;;;;;;6.58;50.45;100266.13;5086372;28;19919;-80
2022/04/12 00:37:15;;;;;;;;;;;;;;;6.66;50.17;100262.69;5086210;28;19951;-80
2022/04/12 00:39:40;;;;;;;;;;;;;;;6.47;50.73;100266.88;5090266;28;19981;-81
2022/04/12 00:42:06;;;;;;;;;;;;;;;6.45;50.88;100261.63;5090081;28;19981;-81
2022/04/12 00:44:31;;;;;;;;;;;;;;;6.46;50.60;100260.75;5077098;28;19956;-81
2022/04/12 00:46:57;;;;;;;;;;;;;;;6.50;50.45;100266.91;5082013;28;19924;-80
2022/04/12 00:49:25;;;;;;;;;;;;;;;6.42;50.73;100265.06;5088646;28;20005;-80
2022/04/12 00:51:51;;;;;;;;;;;;;;;6.29;51.37;100263.19;5086620;28;20030;-80
2022/04/12 00:54:19;;;;;;;;;;;;;;;6.41;50.94;100270.28;5069455;28;20433;-80
2022/04/12 00:56:45;;;;;;;;;;;;;;;6.38;50.85;100267.63;5068565;28;19987;-81
2022/04/12 00:59:11;;;;;;;;;;;;;;;6.23;51.64;100271.84;5069827;28;20394;-81
2022/04/12 01:01:36;;;;;;;;;;;;;;;6.24;51.50;100267.47;5088073;28;19984;-80
2022/04/12 01:04:01;;;;;;;;;;;;;;;6.19;51.43;100263.94;5089864;28;20324;-80
2022/04/12 01:06:27;;;;;;;;;;;;;;;6.11;51.40;100270.84;5088219;28;20006;-80
2022/04/12 01:08:52;;;;;;;;;;;;;;;6.05;52.04;100269.00;5089728;28;19955;-81
2022/04/12 01:11:17;;;;;;;;;;;;;;;6.14;51.71;100258.66;5089218;28;19927;-82
2022/04/12 01:13:43;;;;;;;;;;;;;;;6.12;51.50;100268.22;5089884;28;19938;-82
2022/04/12 01:16:08;;;;;;;;;;;;;;;6.15;51.64;100259.50;5089190;28;20373;-82
2022/04/12 01:18:34;;;;;;;;;;;;;;;6.14;51.36;100258.66;5089498;28;20465;-82
2022/04/12 01:21:00;;;;;;;;;;;;;;;6.08;51.72;100261.19;5089142;28;19943;-81
2022/04/12 01:23:28;;;;;;;;;;;;;;;5.97;51.59;100263.66;5089118;28;19920;-82
2022/04/12 01:25:53;;;;;;;;;;;;;;;6.09;52.31;100263.81;5089257;28;20783;-82
2022/04/12 01:28:18;;;;;;;;;;;;;;;6.01;51.72;100264.56;5089541;28;20002;-81
2022/04/12 01:30:44;;;;;;;;;;;;;;;6.01;52.01;100261.97;5088863;28;19920;-82
2022/04/12 01:33:09;;;;;;;;;;;;;;;5.96;52.06;100263.63;5089346;28;19920;-81
2022/04/12 01:35:36;;;;;;;;;;;;;;;5.82;52.05;100263.44;5088669;28;20306;-81
2022/04/12 01:38:01;;;;;;;;;;;;;;;5.91;52.18;100260.94;5089133;28;20301;-81
2022/04/12 01:40:26;;;;;;;;;;;;;;;5.77;52.51;100268.59;5088646;28;20015;-81
2022/04/12 01:42:52;;;;;;;;;;;;;;;5.77;52.30;100272.97;5089237;28;20006;-81
2022/04/12 01:45:19;;;;;;;;;;;;;;;5.70;52.64;100269.38;5088081;28;19973;-81
2022/04/12 01:47:44;;;;;;;;;;;;;;;5.78;52.25;100270.38;5088736;28;19976;-82
2022/04/12 01:50:09;;;;;;;;;;;;;;;5.75;53.05;100272.97;5087249;28;20386;-81
2022/04/12 01:52:35;;;;;;;;;;;;;;;5.80;51.90;100271.28;5088131;28;19920;-82
2022/04/12 01:55:02;;;;;;;;;;;;;;;5.74;52.24;100271.19;5088900;28;19916;-82
2022/04/12 01:57:27;;;;;;;;;;;;;;;5.72;52.52;100265.94;5088567;28;19912;-82
2022/04/12 01:59:53;;;;;;;;;;;;;;;5.68;52.77;100274.59;5088793;28;19923;-81
2022/04/12 02:02:18;;;;;;;;;;;;;;;5.70;52.79;100269.38;5085666;28;20510;-81
2022/04/12 02:04:43;;;;;;;;;;;;;;;5.61;52.60;100269.25;5087841;28;19916;-81
2022/04/12 02:07:10;;;;;;;;;;;;;;;5.51;53.28;100269.09;5087880;28;19916;-82
2022/04/12 02:09:35;;;;;;;;;;;;;;;5.60;52.75;100265.75;5088922;28;19920;-82
2022/04/12 02:12:00;;;;;;;;;;;;;;;5.61;52.62;100266.63;5087638;28;19912;-81
2022/04/12 02:14:26;;;;;;;;;;;;;;;5.77;52.63;100267.75;5080659;28;19920;-83
2022/04/12 02:16:51;;;;;;;;;;;;;;;5.65;52.13;100264.06;5069210;28;20366;-81
2022/04/12 02:19:16;;;;;;;;;;;;;;;5.66;52.57;100259.75;5087106;28;20366;-80
2022/04/12 02:21:42;;;;;;;;;;;;;;;5.70;52.12;100261.53;5087551;28;20003;-81
2022/04/12 02:24:07;;;;;;;;;;;;;;;5.75;51.97;100262.47;5071259;28;19959;-81
2022/04/12 02:26:33;;;;;;;;;;;;;;;5.69;52.30;100260.66;5067832;28;20010;-81
2022/04/12 02:28:58;;;;;;;;;;;;;;;5.66;51.91;100255.38;5072428;28;19926;-81
2022/04/12 02:31:23;;;;;;;;;;;;;;;5.75;51.72;100249.41;5081800;28;19920;-81
2022/04/12 02:33:48;;;;;;;;;;;;;;;5.84;51.89;100256.47;5068113;28;20404;-81
2022/04/12 02:36:14;;;;;;;;;;;;;;;5.81;51.40;100267.81;5066810;28;19912;-81
2022/04/12 02:38:39;;;;;;;;;;;;;;;5.69;51.49;100265.00;5068023;28;19924;-81
2022/04/12 02:41:04;;;;;;;;;;;;;;;5.87;51.08;100260.03;5083328;28;19924;-81
2022/04/12 02:43:30;;;;;;;;;;;;;;;5.95;50.95;100256.63;5086425;28;19920;-81
2022/04/12 02:45:55;;;;;;;;;;;;;;;5.95;50.92;100261.84;5088498;28;19919;-81
2022/04/12 02:48:20;;;;;;;;;;;;;;;5.95;51.39;100269.72;5086587;28;19955;-81
2022/04/12 02:50:47;;;;;;;;;;;;;;;5.96;51.32;100268.84;5087118;28;20387;-81
2022/04/12 02:53:13;;;;;;;;;;;;;;;6.16;51.07;100269.13;5087004;28;19965;-82
2022/04/12 02:55:38;;;;;;;;;;;;;;;5.82;51.88;100276.53;5087847;28;19919;-81
2022/04/12 02:58:03;;;;;;;;;;;;;;;5.92;52.17;100275.81;5086393;28;20369;-81
2022/04/12 03:00:29;;;;;;;;;;;;;;;5.88;52.28;100280.09;5086597;28;20375;-82
2022/04/12 03:02:54;;;;;;;;;;;;;;;5.71;52.53;100279.00;5087099;28;19970;-83
2022/04/12 03:05:19;;;;;;;;;;;;;;;5.71;52.80;100279.88;5087330;28;20023;-82
2022/04/12 03:07:45;;;;;;;;;;;;;;;5.80;52.63;100280.88;5087660;28;20413;-82
2022/04/12 03:10:10;;;;;;;;;;;;;;;5.80;52.81;100278.25;5087951;28;19915;-82
2022/04/12 03:12:35;;;;;;;;;;;;;;;5.82;53.07;100280.00;5087053;28;19920;-83
2022/04/12 03:15:02;;;;;;;;;;;;;;;6.01;52.65;100272.44;5086661;28;19915;-83
2022/04/12 03:17:28;;;;;;;;;;;;;;;5.71;53.32;100279.88;5087006;28;19924;-82
2022/04/12 03:19:53;;;;;;;;;;;;;;;5.74;53.19;100285.16;5086587;28;19919;-82
2022/04/12 03:22:18;;;;;;;;;;;;;;;5.27;53.93;100287.09;5086474;28;19919;-82
2022/04/12 03:24:45;;;;;;;;;;;;;;;5.42;54.10;100291.66;5087056;28;19916;-82
2022/04/12 03:27:10;;;;;;;;;;;;;;;5.41;53.27;100289.88;5066373;28;19986;-82
2022/04/12 03:29:36;;;;;;;;;;;;;;;5.37;53.23;100284.59;5067168;28;19912;-82
2022/04/12 03:32:01;;;;;;;;;;;;;;;5.33;53.48;100284.53;5067421;28;19962;-83
2022/04/12 03:34:27;;;;;;;;;;;;;;;5.32;53.20;100278.44;5086373;28;20030;-82
2022/04/12 03:36:52;;;;;;;;;;;;;;;5.31;52.97;100286.25;5086630;28;20372;-82
2022/04/12 03:39:18;;;;;;;;;;;;;;;5.25;53.01;100289.66;5087470;28;19912;-82
2022/04/12 03:41:47;;;;;;;;;;;;;;;5.36;52.84;100293.31;5086994;28;19916;-82
2022/04/12 03:44:13;;;;;;;;;;;;;;;5.37;52.84;100299.44;5086145;28;20375;-82
2022/04/12 03:46:38;;;;;;;;;;;;;;;5.24;53.12;100290.50;5086618;28;19916;-82
2022/04/12 03:49:03;;;;;;;;;;;;;;;5.24;52.57;100297.50;5085934;28;20005;-81
2022/04/12 03:51:29;;;;;;;;;;;;;;;5.28;52.55;100296.66;5087357;28;19916;-81
2022/04/12 03:53:54;;;;;;;;;;;;;;;5.29;52.56;100295.81;5085400;28;19922;-81
2022/04/12 03:56:20;;;;;;;;;;;;;;;5.10;53.41;100294.66;5086500;28;20002;-81
2022/04/12 03:58:45;;;;;;;;;;;;;;;5.18;53.11;100295.66;5086681;28;19916;-81
2022/04/12 04:01:10;;;;;;;;;;;;;;;5.30;52.89;100297.56;5085370;28;19950;-81
2022/04/12 04:03:36;;;;;;;;;;;;;;;5.31;52.81;100292.34;5086914;28;19920;-81
2022/04/12 04:06:02;;;;;;;;;;;;;;;5.40;52.52;100293.38;5085505;28;19916;-82
2022/04/12 04:08:27;;;;;;;;;;;;;;;5.37;52.23;100299.44;5086593;28;20209;-82
2022/04/12 04:10:52;;;;;;;;;;;;;;;5.46;51.34;100296.97;5086979;28;20006;-82
2022/04/12 04:13:18;;;;;;;;;;;;;;;5.62;51.66;100289.34;5088354;28;19915;-83
2022/04/12 04:15:45;;;;;;;;;;;;;;;5.66;50.96;100291.16;5089736;28;19977;-82
2022/04/12 04:18:11;;;;;;;;;;;;;;;5.71;50.97;100294.72;5083962;28;19923;-83
2022/04/12 04:20:36;;;;;;;;;;;;;;;5.95;50.44;100295.88;5088742;28;20317;-83
2022/04/12 04:23:02;;;;;;;;;;;;;;;6.17;50.32;100291.88;5089400;28;19948;-83
2022/04/12 04:25:28;;;;;;;;;;;;;;;6.15;49.11;100288.31;5078660;28;19927;-83
2022/04/12 04:27:53;;;;;;;;;;;;;;;6.23;49.36;100298.06;5083280;28;19919;-83
2022/04/12 04:30:19;;;;;;;;;;;;;;;6.49;48.74;100293.97;5088753;28;19923;-83
2022/04/12 04:32:45;;;;;;;;;;;;;;;6.85;48.05;100293.47;5090120;28;19942;-82
2022/04/12 04:35:10;;;;;;;;;;;;;;;6.92;47.93;100297.03;5069795;28;20309;-82
2022/04/12 04:37:46;;;;;;;;;;;;;;;6.95;47.24;100299.69;5069600;28;19916;-83
2022/04/12 04:40:21;;;;;;;;;;;;;;;7.15;46.70;100300.78;5085753;28;20002;-82
2022/04/12 04:42:47;;;;;;;;;;;;;;;7.34;47.01;100306.16;5089892;28;20411;-82
2022/04/12 04:45:13;;;;;;;;;;;;;;;7.40;46.51;100300.97;5087793;28;20010;-82
2022/04/12 04:47:51;;;;;;;;;;;;;;;7.70;46.16;100294.16;5089146;28;19923;-82
2022/04/12 04:50:17;;;;;;;;;;;;;;;7.52;46.85;100300.16;5069667;28;19912;-82
2022/04/12 04:52:43;;;;;;;;;;;;;;;7.34;47.08;100307.03;5078521;28;19912;-83
2022/04/12 04:55:08;;;;;;;;;;;;;;;7.40;46.70;100310.56;5088232;28;20324;-82
2022/04/12 04:57:37;;;;;;;;;;;;;;;7.65;46.62;100306.41;5088341;28;19947;-81
2022/04/12 05:00:06;;;;;;;;;;;;;;;7.91;45.53;100308.28;5089681;28;19989;-83
2022/04/12 05:02:32;;;;;;;;;;;;;;;7.94;45.50;100303.94;5089577;28;19922;-81
2022/04/12 05:04:57;;;;;;;;;;;;;;;7.88;46.05;100310.03;5087792;28;20006;-82
2022/04/12 05:07:26;;;;;;;;;;;;;;;8.00;45.79;100319.75;5085880;28;20413;-84
2022/04/12 05:09:52;;;;;;;;;;;;;;;7.90;46.00;100315.28;5086657;28;19951;-83
2022/04/12 05:12:17;;;;;;;;;;;;;;;7.85;46.65;100317.88;5088244;28;19967;-82
2022/04/12 05:14:42;;;;;;;;;;;;;;;7.87;46.10;100320.53;5088640;28;19927;-82
2022/04/12 05:17:08;;;;;;;;;;;;;;;7.91;46.70;100317.06;5089059;28;19958;-83
2022/04/12 05:19:33;;;;;;;;;;;;;;;8.10;46.33;100317.16;5089490;28;19915;-83
2022/04/12 05:21:58;;;;;;;;;;;;;;;8.28;46.10;100325.13;5089675;28;19927;-83
2022/04/12 05:24:23;;;;;;;;;;;;;;;8.44;44.71;100330.50;5087061;28;20362;-82
2022/04/12 05:26:49;;;;;;;;;;;;;;;8.43;45.30;100329.56;5089532;28;20006;-82
2022/04/12 05:29:14;;;;;;;;;;;;;;;8.65;45.72;100333.19;5088885;28;19915;-82
2022/04/12 05:31:39;;;;;;;;;;;;;;;8.81;45.41;100334.09;5089405;28;19986;-83
2022/04/12 05:34:05;;;;;;;;;;;;;;;8.95;44.20;100327.09;5089356;28;19916;-83
2022/04/12 05:36:30;;;;;;;;;;;;;;;9.04;44.55;100328.88;5087702;28;20750;-82
2022/04/12 05:38:56;;;;;;;;;;;;;;;9.14;44.78;100320.13;5089141;28;19916;-83
2022/04/12 05:41:22;;;;;;;;;;;;;;;9.55;43.82;100328.03;5088434;28;19950;-82
2022/04/12 05:43:47;;;;;;;;;;;;;;;9.49;42.95;100321.00;5089321;28;20648;-82
2022/04/12 05:46:12;;;;;;;;;;;;;;;9.72;43.75;100322.75;5088419;28;20499;-83
2022/04/12 05:48:38;;;;;;;;;;;;;;;9.80;41.93;100321.84;5083960;28;19946;-83
2022/04/12 05:51:03;;;;;;;;;;;;;;;9.90;41.11;100309.53;5087305;28;19930;-84
2022/04/12 05:53:28;;;;;;;;;;;;;;;9.93;42.80;100312.16;5079773;28;20014;-84
2022/04/12 05:55:54;;;;;;;;;;;;;;;10.06;41.70;100320.91;5080243;28;20430;-84
2022/04/12 05:58:19;;;;;;;;;;;;;;;10.19;40.22;100316.47;5086705;28;20030;-84
2022/04/12 06:00:44;;;;;;;;;;;;;;;10.23;42.26;100317.34;5088530;28;19962;-84
2022/04/12 06:03:10;;;;;;;;;;;;;;;10.45;41.08;100319.03;5088398;28;19919;-85
2022/04/12 06:05:35;;;;;;;;;;;;;;;10.95;40.87;100311.69;5088114;28;19919;-83
2022/04/12 06:08:03;;;;;;;;;;;;;;;11.20;40.84;100307.16;5088672;28;19927;-83
2022/04/12 06:10:28;;;;;;;;;;;;;;;11.64;39.77;100312.91;5087358;28;19926;-83
2022/04/12 06:12:53;;;;;;;;;;;;;;;11.45;38.07;100313.09;5088815;28;19922;-83
2022/04/12 06:15:19;;;;;;;;;;;;;;;11.46;39.28;100314.84;5088159;28;19963;-84
2022/04/12 06:17:44;;;;;;;;;;;;;;;11.39;40.48;100315.78;5088654;28;19916;-82
2022/04/12 06:20:11;;;;;;;;;;;;;;;11.95;40.32;100316.16;5087642;28;20413;-82
2022/04/12 06:22:38;;;;;;;;;;;;;;;12.09;38.71;100320.41;5086792;28;19912;-85
2022/04/12 06:25:04;;;;;;;;;;;;;;;12.01;37.66;100317.88;5070571;28;20667;-85
2022/04/12 06:27:34;;;;;;;;;;;;;;;12.11;37.75;100318.63;5066314;28;19929;-83
2022/04/12 06:30:06;;;;;;;;;;;;;;;12.27;38.42;100322.00;5066352;28;19916;-84
2022/04/12 06:32:32;;;;;;;;;;;;;;;12.48;37.58;100315.53;5066306;28;19913;-84
2022/04/12 06:34:57;;;;;;;;;;;;;;;12.46;36.70;100315.56;5065961;28;19916;-84
2022/04/12 06:37:23;;;;;;;;;;;;;;;12.13;36.42;100324.78;5067323;28;20455;-83
2022/04/12 06:39:49;;;;;;;;;;;;;;;11.92;36.17;100315.28;5067833;28;19924;-83
2022/04/12 06:42:14;;;;;;;;;;;;;;;12.35;38.80;100317.47;5067853;28;19912;-82
2022/04/12 07:02:07;;;;;;;1.08;0.93;;;;;;;12.94;36.58;100328.13;5033025;27;1504015;-84
2022/04/12 07:04:33;;;;;;;1.27;1.20;;;;;;;13.50;36.32;100335.25;5084007;28;20036;-82
2022/04/12 07:06:59;;;;;;;;;;;;;;;12.80;32.78;100338.06;5083789;28;20063;-81
2022/04/12 07:09:27;;;;;;;;;;;;;;;12.68;33.09;100344.38;5084489;28;19962;-83
2022/04/12 07:11:56;;;;;;;1.13;0.80;;;;;;;12.70;34.91;100324.94;5083619;28;19916;-84
2022/04/12 07:14:22;;;;;;;0.35;0.35;;;;;;;12.88;33.57;100331.78;5083272;28;20036;-82
2022/04/12 07:16:48;;;;;;;0.82;0.70;;;;;;;12.90;34.34;100331.75;5083601;28;20032;-85
2022/04/12 07:19:13;;;;;;;;;;;;;;;13.33;36.04;100339.06;5083370;28;20774;-82
2022/04/12 07:21:39;;;;;;;0.47;0.47;;;;;;;13.52;33.17;100323.75;5082731;28;19924;-82
2022/04/12 07:24:06;;;;;;;0.73;0.73;;;;;;;12.94;31.69;100317.53;5083351;28;20028;-83
2022/04/12 07:26:32;;;;;;;0.75;0.75;;;;;;;13.41;33.82;100323.06;5083627;28;20036;-83
2022/04/12 07:28:58;;;;;;;;;;;;;;;13.39;35.44;100335.44;5084044;28;20397;-82
2022/04/12 07:31:23;;;;;;;0.75;0.73;;;;;;;13.55;33.84;100336.06;5083517;28;20352;-84
2022/04/12 07:33:48;;;;;;;;;;;;;;;13.69;33.30;100336.69;5084002;28;20454;-82
2022/04/12 07:36:14;;;;;;;0.55;0.55;;;;;;;13.65;31.47;100345.59;5083705;28;19913;-83
2022/04/12 07:38:40;;;;;;;;;;;;;;;13.24;31.49;100334.75;5084449;28;20032;-83
2022/04/12 07:41:05;;;;;;;0.30;0.30;;;;;;;13.36;31.88;100322.22;5083798;28;19908;-83
2022/04/12 07:43:31;;;;;;;;;;;;;;;13.50;32.68;100335.25;5084077;28;20086;-82
2022/04/12 07:45:56;;;;;;;;;;;;;;;14.21;31.34;100339.28;5083907;28;19912;-81
2022/04/12 07:48:22;;;;;;;;;;;;;;;14.36;32.10;100338.97;5083859;28;19912;-82
2022/04/12 07:50:47;;;;;;;8.93;1.95;;;;;;;14.48;31.08;100328.09;5083451;28;19912;-81
2022/04/12 07:53:12;;;;;;;;;;;;;;;14.21;30.65;100331.31;5083741;28;20123;-83
2022/04/12 07:55:38;;;;;;;;;;;;;;;14.54;31.34;100332.41;5083678;28;19985;-83
2022/04/12 07:58:04;;;;;;;;;;;;;;;14.09;29.72;100330.66;5083639;28;19916;-83
2022/04/12 08:00:29;;;;;;;0.88;0.70;;;;;;;13.94;33.65;100321.19;5082590;28;19983;-83
2022/04/12 08:02:55;;;;;;;;;;;;;;;14.42;31.17;100330.00;5069928;28;20041;-81
2022/04/12 08:05:20;;;;;;;0.60;0.60;;;;;;;14.70;32.53;100311.72;5069286;28;19917;-83
2022/04/12 08:07:48;;;;;;;;;;;;;;;14.47;29.69;100336.09;5069451;28;20027;-81
2022/04/12 08:10:17;;;;;;;1.25;1.08;;;;;;;14.38;30.91;100329.22;5068318;28;20350;-80
2022/04/12 08:12:44;;;;;;;1.13;1.05;;;;;;;14.32;30.15;100294.84;5069236;28;20140;-83
2022/04/12 08:15:11;;;;;;;0.47;0.47;;;;;;;14.63;30.60;100308.34;5068923;28;20406;-82
2022/04/12 08:17:39;;;;;;;0.25;0.25;;;;;;;14.33;30.50;100326.66;5069194;28;20028;-81
2022/04/12 08:20:05;;;;;;;0.50;0.50;;;;;;;14.68;30.63;100318.88;5069167;28;20082;-81
2022/04/12 08:22:34;;;;;;;2.92;0.75;;;;;;;15.42;30.43;100313.63;5068974;28;20039;-84
2022/04/12 08:25:00;;;;;;;0.75;0.75;;;;;;;15.01;27.84;100306.63;5069351;28;20777;-81
2022/04/12 08:27:26;;;;;;;1.35;0.68;;;;;;;14.08;30.09;100304.16;5069675;28;20029;-82
2022/04/12 08:29:52;;;;;;;2.10;0.77;;;;;;;14.33;33.88;100294.81;5069098;28;20102;-81
2022/04/12 08:32:17;;;;;;;;;;;;;;;15.04;31.19;100300.34;5070085;28;20036;-88
2022/04/12 08:34:44;;;;;;;1.38;0.63;;;;;;;14.76;27.92;100284.19;5069562;28;19912;-83
2022/04/12 08:37:10;;;;;;;0.90;0.47;;;;;;;14.06;28.85;100284.75;5069458;28;20036;-84
2022/04/12 08:39:35;;;;;;;;;;;;;;;14.22;29.19;100301.22;5071665;28;20029;-82
2022/04/12 08:42:03;;;;;;;0.63;0.63;;;;;;;14.37;30.33;100292.09;5072502;28;19916;-81
2022/04/12 08:44:30;;;;;;;0.80;0.47;;;;;;;14.62;31.45;100290.66;5071622;28;20493;-83
2022/04/12 08:46:56;;;;;;;0.63;0.55;;;;;;;15.17;30.95;100255.75;5046590;28;20033;-83
2022/04/12 08:49:26;;;;;;;;;;;;;;;15.29;29.97;100289.13;5068807;28;20109;-83
2022/04/12 08:51:52;;;;;;;0.28;0.28;;;;;;;14.46;29.14;100268.00;5077904;28;19916;-85
2022/04/12 08:54:18;;;;;;;;;;;;;;;14.37;30.51;100295.59;5072824;28;20092;-82
2022/04/12 08:56:45;;;;;;;0.55;0.55;;;;;;;13.96;29.37;100282.28;5076858;28;19916;-86
2022/04/12 08:59:12;;;;;;;0.38;0.38;;;;;;;14.12;31.44;100280.19;5052341;28;20058;-89
2022/04/12 09:01:39;;;;;;;0.70;0.70;;;;;;;14.85;33.41;100283.97;5068797;28;20136;-84
2022/04/12 09:04:04;;;;;;;0.43;0.35;;;;;;;15.03;31.54;100270.25;5060375;28;20040;-85
2022/04/12 09:06:30;;;;;;;;;;;;;;;14.93;30.74;100259.88;5068800;28;20028;-83
2022/04/12 09:09:10;;;;;;;0.57;0.57;;;;;;;14.14;30.90;100250.97;5065536;28;19912;-83
2022/04/12 09:11:36;;;;;;;0.52;0.40;;;;;;;14.57;34.28;100267.78;5067833;28;20068;-86
2022/04/12 09:14:01;;;;;;;;;;;;;;;14.76;31.78;100254.97;5065480;28;20075;-86
2022/04/12 09:16:28;;;;;;;0.90;0.90;;;;;;;14.66;34.38;100241.03;5067733;28;19959;-86
2022/04/12 09:18:55;;;;;;;1.00;0.90;;;;;;;15.40;32.82;100263.16;5067495;28;20033;-83
2022/04/12 09:21:27;;;;;;;0.52;0.52;;;;;;;15.20;35.15;100261.88;5049678;28;20037;-84
2022/04/12 09:23:55;;;;;;;0.90;0.90;;;;;;;14.74;33.39;100240.88;5067705;28;20033;-83
2022/04/12 09:26:27;;;;;;;0.40;0.40;;;;;;;15.21;29.96;100246.78;5068328;28;20044;-85
2022/04/12 09:28:55;;;;;;;0.32;0.32;;;;;;;14.81;31.26;100230.06;5068801;28;20079;-82
2022/04/12 09:31:22;;;;;;;0.50;0.25;;;;;;;15.16;31.37;100241.59;5067971;28;20524;-84
2022/04/12 09:33:49;;;;;;;0.40;0.40;;;;;;;15.39;33.24;100226.84;5067821;28;20042;-83
2022/04/12 09:36:15;;;;;;;1.73;1.05;;;;;;;15.08;32.20;100250.69;5067930;28;20036;-84
2022/04/12 09:38:43;;;;;;;1.52;1.42;;;;;;;15.42;33.43;100242.72;5068162;28;20039;-81
2022/04/12 09:41:23;;;;;;;0.60;0.52;;;;;;;15.38;31.44;100220.66;5067639;28;20119;-83
2022/04/12 09:43:57;;;;;;;0.55;0.52;;;;;;;15.70;29.97;100223.34;5067882;28;20029;-83
2022/04/12 09:46:24;;;;;;;1.45;1.35;;;;;;;15.55;33.63;100235.28;5066847;28;20055;-85
2022/04/12 09:48:55;;;;;;;1.55;0.90;;;;;;;15.67;30.23;100224.28;5069942;28;20036;-82
2022/04/12 09:51:23;;;;;;;0.68;0.60;;;;;;;15.29;31.57;100231.53;5073115;28;20036;-83
2022/04/12 09:53:49;;;;;;;1.38;0.95;;;;;;;16.03;33.97;100221.53;5048686;28;20452;-83
2022/04/12 09:56:35;;;;;;;0.40;0.40;;;;;;;15.04;28.75;100231.25;5049339;28;20421;-82
2022/04/12 09:59:05;;;;;;;0.30;0.30;;;;;;;14.57;30.54;100204.06;5048762;28;20055;-82
2022/04/12 10:01:33;;;;;;;2.08;1.30;;;;;;;14.86;32.96;100200.72;5067181;28;20111;-82
2022/04/12 10:03:59;;;;;;;7.63;0.82;;;;;;;14.94;31.46;100208.50;5067460;28;20077;-81
2022/04/12 10:06:27;;;;;;;0.22;0.22;;;;;;;15.36;30.67;100205.66;5067780;28;20036;-82
2022/04/12 10:08:55;;;;;;;0.55;0.55;;;;;;;15.66;31.36;100203.06;5067496;28;20509;-82
2022/04/12 10:11:22;;;;;;;2.35;0.93;;;;;;;15.29;29.47;100201.41;5048576;28;20437;-81
2022/04/12 10:13:48;;;;;;;1.23;1.17;;;;;;;15.18;30.07;100194.59;5067383;28;20101;-80
2022/04/12 10:16:17;;;;;;;1.95;1.38;;;;;;;14.95;30.18;100184.56;5048914;28;20040;-79
2022/04/12 10:18:45;;;;;;;0.75;0.75;;;;;;;15.43;34.42;100155.84;5067472;28;20039;-81
2022/04/12 10:21:12;;;;;;;1.20;0.98;;;;;;;15.13;29.54;100161.94;5067541;28;20036;-82
2022/04/12 10:23:41;;;;;;;1.10;0.95;;;;;;;15.47;33.69;100139.78;5067519;28;20043;-84
2022/04/12 10:26:08;;;;;;;0.52;0.52;;;;;;;16.03;30.83;100151.50;5067256;28;20033;-81
2022/04/12 10:28:34;;;;;;;0.85;0.63;;;;;;;15.59;28.99;100149.19;5066527;28;20476;-84
2022/04/12 10:31:12;;;;;;;0.30;0.30;;;;;;;15.53;28.66;100149.38;5063372;28;20032;-82
2022/04/12 10:33:38;;;;;;;0.30;0.30;;;;;;;15.37;29.16;100149.78;5066735;28;20055;-80
2022/04/12 10:36:06;;;;;;;0.20;0.20;;;;;;;15.08;27.33;100142.59;5066607;28;20493;-81
2022/04/12 10:38:39;;;;;;;0.75;0.75;;;;;;;15.53;28.21;100125.44;5066702;28;20027;-81
2022/04/12 10:41:42;;;;;;;0.30;0.25;;;;;;;15.26;28.03;100130.63;5066952;28;20032;-85
2022/04/12 10:44:19;;;;;;;0.43;0.43;;;;;;;15.65;29.28;100118.91;5025007;28;20040;-84
2022/04/12 10:46:47;;;;;;;0.88;0.88;;;;;;;15.37;27.63;100117.03;5068223;28;20029;-85
2022/04/12 10:49:16;;;;;;;0.77;0.70;;;;;;;15.18;28.56;100090.97;5068099;28;20033;-89
2022/04/12 10:51:42;;;;;;;0.15;0.13;;;;;;;15.24;28.36;100108.50;5067798;28;20025;-85
2022/04/12 10:54:28;;;;;;;0.35;0.35;;;;;;;15.30;28.49;100107.47;5066603;28;20035;-82
2022/04/12 10:57:16;;;;;;;0.20;0.20;;;;;;;15.36;27.72;100102.84;5064120;28;20021;-84
2022/04/12 10:59:46;;;;;;;0.77;0.73;;;;;;;15.37;25.77;100080.69;5064455;28;20112;-85
2022/04/12 11:02:12;;;;;;;0.88;0.85;;;;;;;15.66;28.29;100078.97;5065311;28;20139;-83
2022/04/12 11:04:38;;;;;;;0.88;0.60;;;;;;;15.65;27.44;100077.22;5066339;28;20186;-82
2022/04/12 11:07:06;;;;;;;0.75;0.75;;;;;;;15.39;27.41;100068.22;5066041;28;20553;-82
2022/04/12 11:09:32;;;;;;;0.20;0.20;;;;;;;15.43;26.54;100086.72;5065951;28;20031;-82
2022/04/12 11:12:01;;;;;;;0.30;0.30;;;;;;;15.17;26.68;100067.97;5066194;28;20033;-80
2022/04/12 11:14:38;;;;;;;0.73;0.28;;;;;;;15.82;28.77;100083.84;5065454;28;20035;-81
2022/04/12 11:17:12;;;;;;;0.60;0.60;;;;;;;15.61;26.08;100075.56;5066532;28;20037;-81
2022/04/12 11:19:49;;;;;;;0.30;0.30;;;;;;;15.80;29.56;100070.63;5066211;28;20024;-81
2022/04/12 11:22:16;;;;;;;0.25;0.25;;;;;;;15.99;26.97;100062.94;5065914;28;20107;-82
2022/04/12 11:24:43;;;;;;;1.23;0.93;;;;;;;15.91;28.29;100041.00;5065847;28;20028;-82
2022/04/12 11:27:13;;;;;;;0.57;0.57;;;;;;;16.37;28.14;100058.13;5066184;28;20025;-80
2022/04/12 11:29:40;;;;;;;0.85;0.77;;;;;;;16.03;28.48;100061.88;5044856;28;20041;-82
2022/04/12 11:32:08;;;;;;;0.70;0.70;;;;;;;16.34;27.78;100060.03;5065958;28;20482;-81
2022/04/12 11:34:36;;;;;;;0.20;0.20;;;;;;;16.54;29.05;100054.03;5063157;28;20035;-83
2022/04/12 11:37:10;;;;;;;0.40;0.38;;;;;;;16.10;26.46;100047.47;5067109;28;20036;-83
2022/04/12 11:39:42;;;;;;;0.47;0.40;;;;;;;16.36;29.04;100052.84;5060765;28;20494;-84
2022/04/12 11:42:10;;;;;;;1.77;0.70;;;;;;;16.56;29.75;100039.75;5065156;28;20039;-84
2022/04/12 11:44:36;;;;;;;0.82;0.82;;;;;;;16.21;24.92;100054.25;5068330;28;20041;-85
2022/04/12 11:47:09;;;;;;;0.77;0.77;;;;;;;16.09;28.25;100029.75;5069896;28;20024;-83
2022/04/12 11:49:42;;;;;;;1.55;1.38;;;;;;;16.09;26.89;100023.56;5069798;28;20028;-86
2022/04/12 11:52:11;;;;;;;0.52;0.52;;;;;;;16.29;26.53;100031.75;5068811;28;20036;-82
2022/04/12 11:54:38;;;;;;;0.35;0.35;;;;;;;16.32;25.57;100041.44;5066523;28;20033;-83
2022/04/12 11:57:04;;;;;;;0.40;0.40;;;;;;;16.39;26.48;100036.78;5057931;28;20513;-81
2022/04/12 11:59:32;;;;;;;0.28;0.28;;;;;;;16.49;26.05;100010.75;5056662;28;20040;-85
2022/04/12 12:02:02;;;;;;;0.52;0.52;;;;;;;16.54;25.36;100012.28;5066573;28;20048;-82
2022/04/12 12:04:33;;;;;;;0.55;0.55;;;;;;;16.56;25.81;99994.50;5068985;28;20089;-86
2022/04/12 12:07:07;;;;;;;0.20;0.20;;;;;;;16.44;25.89;100009.09;5069363;28;20037;-82
2022/04/12 12:09:34;;;;;;;0.30;0.30;;;;;;;16.52;24.63;100018.63;5064908;28;20161;-82
2022/04/12 12:12:08;;;;;;;0.55;0.55;;;;;;;16.52;25.96;100016.81;5058792;28;20024;-82
2022/04/12 12:14:35;;;;;;;1.25;1.15;;;;;;;16.74;25.32;99978.78;5050100;28;20088;-87
2022/04/12 12:17:18;;;;;;;0.22;0.22;;;;;;;16.59;26.24;99966.88;5048871;28;20064;-83
2022/04/12 12:19:45;;;;;;;1.02;0.93;;;;;;;16.67;24.25;99977.25;5050669;28;20040;-86
2022/04/12 12:22:12;;;;;;;1.30;0.70;;;;;;;17.16;27.32;100004.81;5048892;28;20033;-87
2022/04/12 12:24:52;;;;;;;0.43;0.35;;;;;;;16.79;24.02;99993.69;5049245;28;20032;-85
2022/04/12 12:27:38;;;;;;;1.00;0.65;;;;;;;16.74;24.49;99976.13;5050000;28;20021;-83
2022/04/12 12:30:04;;;;;;;0.50;0.38;;;;;;;16.41;24.67;99992.38;5050515;28;20136;-86
2022/04/12 12:32:37;;;;;;;0.52;0.47;;;;;;;16.67;25.58;99985.22;5048803;28;20036;-84